Time;durP1;ratioP1;P1;durP2;ratioP2;P2;SDS_P1;SDS_P2;PMS_P1;PMS_P2;Temp;Humidity;BMP_temperature;BMP_pressure;BME280_temperature;BME280_humidity;BME280_pressure;Samples;Min_cycle;Max_cycle;Signal;HPM_P1;HPM_P2
2023/04/05 00:00:16;;;;;;;0.40;0.40;;;;;;;6.76;71.33;96152.44;5023601;28;20068;-63
2023/04/05 00:02:43;;;;;;;0.30;0.30;;;;;;;6.32;72.00;96082.53;5023848;28;20058;-63
2023/04/05 00:05:10;;;;;;;0.30;0.30;;;;;;;6.90;73.41;96146.38;5026001;28;20894;-63
2023/04/05 00:07:38;;;;;;;0.40;0.40;;;;;;;6.89;75.81;96145.56;5026470;28;20049;-63
2023/04/05 00:10:05;;;;;;;0.38;0.38;;;;;;;5.82;78.35;96080.00;5027532;28;20061;-63
2023/04/05 00:12:31;;;;;;;0.35;0.35;;;;;;;5.86;80.61;96130.34;5027642;28;20046;-62
2023/04/05 00:14:58;;;;;;;0.30;0.30;;;;;;;6.19;81.62;96160.84;5027625;28;20080;-62
2023/04/05 00:17:25;;;;;;;0.40;0.40;;;;;;;6.31;82.94;96157.91;5027561;28;20136;-63
2023/04/05 00:19:56;;;;;;;0.30;0.30;;;;;;;6.40;83.21;96165.94;5028073;28;20115;-63
2023/04/05 00:22:25;;;;;;;0.30;0.30;;;;;;;6.21;83.93;96169.53;5027709;28;20562;-62
2023/04/05 00:24:51;;;;;;;0.40;0.40;;;;;;;6.37;83.85;96170.19;5027879;28;20111;-63
2023/04/05 00:27:19;;;;;;;0.30;0.30;;;;;;;6.40;83.28;96166.75;5027352;28;20050;-62
2023/04/05 00:29:45;;;;;;;0.30;0.30;;;;;;;6.46;83.05;96170.78;5026458;28;20061;-64
2023/04/05 00:32:12;;;;;;;0.32;0.32;;;;;;;6.42;82.65;96153.41;5027333;28;20442;-63
2023/04/05 00:34:39;;;;;;;0.30;0.30;;;;;;;6.55;82.61;96176.84;5012934;28;20061;-63
2023/04/05 00:37:05;;;;;;;0.40;0.40;;;;;;;6.44;83.67;96151.09;5008078;28;20053;-63
2023/04/05 00:39:32;;;;;;;0.40;0.40;;;;;;;6.13;82.85;96102.59;5022149;28;20089;-62
2023/04/05 00:42:02;;;;;;;0.40;0.40;;;;;;;6.56;83.87;96175.66;5007906;28;20149;-63
2023/04/05 00:44:33;;;;;;;0.30;0.30;;;;;;;6.29;83.69;96127.25;5007387;28;20089;-63
2023/04/05 00:47:01;;;;;;;0.40;0.40;;;;;;;6.68;82.52;96172.75;5007894;28;20062;-63
2023/04/05 00:49:30;;;;;;;0.40;0.40;;;;;;;6.12;82.06;96078.22;5007409;28;20049;-62
2023/04/05 00:51:57;;;;;;;0.40;0.40;;;;;;;6.65;82.12;96173.50;5007124;28;20120;-62
2023/04/05 00:54:24;;;;;;;0.30;0.30;;;;;;;5.78;82.62;96035.16;5012453;28;20568;-63
2023/04/05 00:56:54;;;;;;;0.40;0.40;;;;;;;6.38;81.72;96147.06;5005830;28;20049;-63
2023/04/05 00:59:21;;;;;;;0.40;0.40;;;;;;;6.50;81.40;96193.63;5022205;28;20085;-62
2023/04/05 01:01:59;;;;;;;0.40;0.40;;;;;;;5.77;80.75;96066.53;5007325;28;20073;-63
2023/04/05 01:04:29;;;;;;;0.32;0.32;;;;;;;6.52;80.39;96185.00;5006924;28;20053;-63
2023/04/05 01:07:13;;;;;;;0.32;0.32;;;;;;;6.45;81.03;96180.16;5006822;28;20064;-62
2023/04/05 01:09:59;;;;;;;;;;;;;;;6.51;80.88;96178.75;5025714;28;20064;-64
2023/04/05 01:12:33;;;;;;;0.30;0.30;;;;;;;6.25;82.02;96197.88;5026867;28;19925;-62
2023/04/05 01:15:00;;;;;;;0.40;0.40;;;;;;;5.59;81.96;96087.34;5026417;28;20103;-62
2023/04/05 01:17:35;;;;;;;0.40;0.40;;;;;;;6.17;81.98;96196.13;5026177;28;20076;-63
2023/04/05 01:20:09;;;;;;;0.40;0.40;;;;;;;6.16;82.70;96200.81;5041553;28;20049;-63
2023/04/05 01:22:42;;;;;;;0.40;0.40;;;;;;;6.17;82.93;96201.63;5025101;28;20096;-63
2023/04/05 01:25:43;;;;;;;0.40;0.40;;;;;;;6.36;82.90;96204.38;5025067;28;20045;-62
2023/04/05 01:28:29;;;;;;;0.40;0.40;;;;;;;6.37;81.46;96208.69;5025318;28;20530;-63
2023/04/05 01:31:12;;;;;;;0.30;0.30;;;;;;;5.31;87.00;96213.06;5026154;28;20072;-63
2023/04/05 01:33:53;;;;;;;0.35;0.35;;;;;;;5.26;90.67;96221.56;5026244;28;20065;-63
2023/04/05 01:36:36;;;;;;;0.30;0.30;;;;;;;5.38;89.13;96225.00;5024805;28;20053;-62
2023/04/05 01:39:04;;;;;;;0.30;0.30;;;;;;;5.36;88.96;96226.53;5026054;28;20045;-62
2023/04/05 01:41:31;;;;;;;0.30;0.30;;;;;;;2.93;88.24;95852.41;5026517;28;20054;-63
2023/04/05 01:43:58;;;;;;;0.30;0.30;;;;;;;5.44;87.06;96225.50;5026499;28;20064;-63
2023/04/05 01:46:25;;;;;;;0.30;0.30;;;;;;;5.43;87.26;96216.50;5026426;28;20471;-63
2023/04/05 01:48:51;;;;;;;0.30;0.30;;;;;;;5.12;88.56;96171.81;5026120;28;20092;-62
2023/04/05 01:51:19;;;;;;;0.30;0.30;;;;;;;5.59;87.46;96235.69;5024625;28;20103;-63
2023/04/05 01:53:46;;;;;;;0.30;0.30;;;;;;;5.65;88.02;96245.22;5025720;28;20049;-63
2023/04/05 01:56:13;;;;;;;0.30;0.30;;;;;;;5.27;87.39;96195.69;5025408;28;20045;-63
2023/04/05 01:58:39;;;;;;;0.30;0.30;;;;;;;5.56;88.54;96233.66;5024453;28;20475;-63
2023/04/05 02:01:06;;;;;;;0.30;0.30;;;;;;;5.59;89.27;96236.50;5025531;28;20057;-63
2023/04/05 02:03:33;;;;;;;0.30;0.30;;;;;;;5.59;90.06;96235.69;5025390;28;20782;-62
2023/04/05 02:06:00;;;;;;;0.40;0.40;;;;;;;5.24;89.52;96169.78;5024097;28;20077;-62
2023/04/05 02:08:26;;;;;;;0.40;0.40;;;;;;;5.42;90.07;96206.66;5025632;28;20057;-62
2023/04/05 02:10:53;;;;;;;0.30;0.30;;;;;;;5.62;88.59;96240.44;5025301;28;20061;-62
2023/04/05 02:13:24;;;;;;;0.32;0.32;;;;;;;5.57;88.88;96232.50;5025679;28;20061;-63
2023/04/05 02:15:51;;;;;;;0.30;0.30;;;;;;;5.66;88.13;96242.13;5025429;28;20064;-63
2023/04/05 02:18:21;;;;;;;0.30;0.30;;;;;;;5.65;86.61;96247.97;5025892;28;20111;-62
2023/04/05 02:20:49;;;;;;;0.30;0.30;;;;;;;5.64;86.04;96238.16;5025304;28;20389;-63
2023/04/05 02:23:18;;;;;;;0.30;0.30;;;;;;;5.28;86.73;96227.50;5025056;28;20103;-62
2023/04/05 02:25:45;;;;;;;0.30;0.30;;;;;;;5.51;87.11;96250.41;5025206;28;20053;-63
2023/04/05 02:28:11;;;;;;;0.30;0.30;;;;;;;5.17;87.20;96199.78;5023945;28;20073;-62
2023/04/05 02:30:38;;;;;;;0.30;0.30;;;;;;;5.42;86.27;96241.56;5025065;28;20417;-62
2023/04/05 02:33:08;;;;;;;0.30;0.30;;;;;;;5.45;86.74;96218.88;5023430;28;20055;-63
2023/04/05 02:35:35;;;;;;;0.30;0.30;;;;;;;5.66;86.33;96239.38;5025155;28;20072;-63
2023/04/05 02:38:03;;;;;;;0.30;0.30;;;;;;;5.36;84.42;96193.56;5023507;28;20053;-63
2023/04/05 02:40:31;;;;;;;0.30;0.30;;;;;;;5.76;85.34;96236.09;5024269;28;20506;-63
2023/04/05 02:42:57;;;;;;;0.30;0.30;;;;;;;5.77;83.58;96261.63;5024915;28;20057;-63
2023/04/05 02:45:26;;;;;;;0.30;0.30;;;;;;;5.73;82.90;96236.00;5024722;28;20061;-63
2023/04/05 02:47:54;;;;;;;0.38;0.38;;;;;;;5.11;82.38;96148.25;5024758;28;20524;-62
2023/04/05 02:50:22;;;;;;;0.30;0.30;;;;;;;5.72;82.51;96300.34;5024892;28;20131;-62
2023/04/05 02:52:50;;;;;;;0.35;0.35;;;;;;;5.54;83.14;96222.22;5025230;28;20136;-62
2023/04/05 02:55:17;;;;;;;0.30;0.30;;;;;;;5.35;83.55;96170.00;5024706;28;20077;-62
2023/04/05 02:57:44;;;;;;;0.30;0.30;;;;;;;5.86;84.33;96251.25;5024832;28;20119;-63
2023/04/05 03:00:13;;;;;;;0.38;0.38;;;;;;;5.85;84.00;96253.19;5023220;28;20119;-63
2023/04/05 03:02:39;;;;;;;0.32;0.32;;;;;;;6.02;82.31;96250.00;5024193;28;20409;-62
2023/04/05 03:05:06;;;;;;;0.30;0.30;;;;;;;5.20;82.21;96124.94;5023141;28;20056;-62
2023/04/05 03:07:34;;;;;;;0.38;0.38;;;;;;;5.92;81.46;96242.34;5024289;28;20056;-62
2023/04/05 03:10:01;;;;;;;0.30;0.30;;;;;;;5.71;82.10;96238.28;5024382;28;20512;-63
2023/04/05 03:12:28;;;;;;;0.30;0.30;;;;;;;5.73;83.19;96241.50;5013664;28;20068;-63
2023/04/05 03:14:54;;;;;;;0.30;0.30;;;;;;;5.76;83.88;96246.25;5024149;28;20504;-62
2023/04/05 03:17:21;;;;;;;0.30;0.30;;;;;;;5.70;83.93;96221.03;5024249;28;20053;-63
2023/04/05 03:19:48;;;;;;;0.35;0.35;;;;;;;5.87;83.25;96247.31;5024104;28;20068;-63
2023/04/05 03:22:15;;;;;;;0.30;0.30;;;;;;;5.88;83.19;96248.94;5024410;28;20111;-63
2023/04/05 03:24:41;;;;;;;0.30;0.30;;;;;;;5.75;81.85;96233.69;5024261;28;20525;-63
2023/04/05 03:27:08;;;;;;;0.30;0.30;;;;;;;5.87;81.19;96256.38;5024658;28;20136;-63
2023/04/05 03:29:35;;;;;;;0.40;0.40;;;;;;;5.79;81.67;96284.00;5024049;28;20494;-61
2023/04/05 03:32:10;;;;;;;0.32;0.32;;;;;;;5.47;81.90;96249.53;5024530;28;20045;-62
2023/04/05 03:34:37;;;;;;;0.30;0.30;;;;;;;5.62;83.51;96274.22;5021996;28;20053;-63
2023/04/05 03:37:07;;;;;;;0.30;0.30;;;;;;;5.42;82.62;96230.59;5024362;28;20045;-63
2023/04/05 03:39:35;;;;;;;0.38;0.38;;;;;;;5.70;82.62;96275.19;5021911;28;20124;-62
2023/04/05 03:42:03;;;;;;;0.30;0.30;;;;;;;5.44;84.14;96281.22;5024326;28;20898;-62
2023/04/05 03:44:38;;;;;;;0.40;0.40;;;;;;;5.34;84.06;96256.28;5023984;28;21001;-62
2023/04/05 03:47:07;;;;;;;0.30;0.30;;;;;;;4.75;84.69;96206.16;5024561;28;20099;-63
2023/04/05 03:49:34;;;;;;;0.30;0.30;;;;;;;5.03;84.10;96212.34;5024103;28;20049;-63
2023/04/05 03:52:00;;;;;;;0.35;0.35;;;;;;;5.61;84.52;96293.81;5017132;28;20194;-62
2023/04/05 03:54:27;;;;;;;0.30;0.30;;;;;;;5.54;86.15;96288.13;5022578;28;20131;-63
2023/04/05 03:56:55;;;;;;;0.30;0.30;;;;;;;5.53;87.20;96281.84;5024057;28;20083;-63
2023/04/05 03:59:21;;;;;;;0.30;0.30;;;;;;;5.59;86.83;96290.63;5020005;28;20050;-63
2023/04/05 04:01:48;;;;;;;0.30;0.30;;;;;;;5.59;87.49;96296.91;5003946;28;20053;-63
2023/04/05 04:04:15;;;;;;;0.40;0.40;;;;;;;5.34;87.38;96295.50;5003458;28;20145;-63
2023/04/05 04:06:42;;;;;;;0.30;0.30;;;;;;;5.34;87.91;96300.22;5004548;28;20060;-63
2023/04/05 04:09:08;;;;;;;0.30;0.30;;;;;;;4.89;88.52;96233.97;5017443;28;20057;-62
2023/04/05 04:11:35;;;;;;;0.38;0.38;;;;;;;5.56;89.25;96307.81;5023705;28;20512;-64
2023/04/05 04:14:01;;;;;;;0.30;0.30;;;;;;;5.68;87.70;96315.94;5023904;28;20076;-63
2023/04/05 04:16:28;;;;;;;0.30;0.30;;;;;;;5.70;87.36;96313.63;5024144;28;20055;-62
2023/04/05 04:18:55;;;;;;;0.30;0.30;;;;;;;5.80;87.06;96310.34;5023284;28;20559;-63
2023/04/05 04:21:23;;;;;;;0.40;0.40;;;;;;;5.94;87.21;96318.94;5022472;28;20474;-63
2023/04/05 04:23:50;;;;;;;0.30;0.30;;;;;;;6.03;87.20;96322.28;5037395;28;20164;-62
2023/04/05 04:26:27;;;;;;;0.32;0.32;;;;;;;5.00;86.26;96149.97;5022277;28;20396;-63
2023/04/05 04:28:55;;;;;;;0.30;0.30;;;;;;;6.13;85.00;96317.03;5020589;28;20059;-63
2023/04/05 04:31:22;;;;;;;0.30;0.30;;;;;;;5.84;86.20;96298.31;5037158;28;20545;-63
2023/04/05 04:33:49;;;;;;;0.40;0.40;;;;;;;6.14;85.01;96328.81;5022572;28;20065;-63
2023/04/05 04:36:17;;;;;;;0.40;0.40;;;;;;;5.33;84.63;96166.81;5023449;28;20420;-63
2023/04/05 04:38:44;;;;;;;0.40;0.40;;;;;;;6.33;83.98;96315.09;5023417;28;20045;-64
2023/04/05 04:41:12;;;;;;;0.30;0.30;;;;;;;6.50;83.01;96317.41;5023269;28;20123;-62
2023/04/05 04:43:42;;;;;;;0.30;0.30;;;;;;;6.64;80.99;96320.47;5023325;28;20057;-63
2023/04/05 04:46:13;;;;;;;0.40;0.40;;;;;;;6.55;80.42;96328.13;5023418;28;20149;-62
2023/04/05 04:48:41;;;;;;;0.30;0.30;;;;;;;6.85;80.85;96342.91;5023742;28;20073;-61
2023/04/05 04:51:08;;;;;;;0.40;0.40;;;;;;;7.08;80.99;96318.19;5021995;28;20080;-62
2023/04/05 04:53:34;;;;;;;0.40;0.40;;;;;;;7.45;78.24;96322.78;5027329;28;20053;-62
2023/04/05 04:56:05;;;;;;;0.40;0.40;;;;;;;7.86;75.10;96336.81;5025042;28;20123;-63
2023/04/05 04:58:32;;;;;;;0.40;0.40;;;;;;;7.73;74.13;96312.22;5027028;28;20164;-61
2023/04/05 05:00:58;;;;;;;0.40;0.40;;;;;;;7.84;74.67;96328.16;5026945;28;20076;-62
2023/04/05 05:03:25;;;;;;;0.40;0.40;;;;;;;8.01;74.56;96333.13;5025398;28;20061;-62
2023/04/05 05:05:52;;;;;;;0.40;0.40;;;;;;;8.08;73.91;96338.78;5026651;28;20057;-62
2023/04/05 05:08:19;;;;;;;0.40;0.40;;;;;;;8.11;73.00;96336.03;5026890;28;20099;-62
2023/04/05 05:10:52;;;;;;;0.45;0.45;;;;;;;7.41;71.97;96332.16;5025604;28;20111;-63
2023/04/05 05:13:19;;;;;;;0.40;0.40;;;;;;;4.65;76.23;95988.91;5027056;28;20299;-61
2023/04/05 05:15:45;;;;;;;0.40;0.40;;;;;;;6.68;77.77;96326.84;5025332;28;20061;-61
2023/04/05 05:18:12;;;;;;;0.40;0.40;;;;;;;6.99;76.63;96337.69;5026603;28;20081;-61
2023/04/05 05:20:40;;;;;;;0.30;0.30;;;;;;;7.60;75.49;96324.59;5025899;28;20484;-62
2023/04/05 05:23:07;;;;;;;0.40;0.40;;;;;;;8.02;71.70;96331.97;5026279;28;20057;-61
2023/04/05 05:25:34;;;;;;;0.40;0.40;;;;;;;8.21;71.59;96340.94;5025605;28;20049;-61
2023/04/05 05:28:01;;;;;;;0.40;0.40;;;;;;;8.51;70.39;96332.69;5026026;28;20532;-61
2023/04/05 05:30:28;;;;;;;0.40;0.40;;;;;;;8.11;66.82;96294.66;5025706;28;20081;-62
2023/04/05 05:32:56;;;;;;;0.40;0.40;;;;;;;8.41;69.32;96336.13;5024888;28;20123;-62
2023/04/05 05:35:23;;;;;;;0.50;0.50;;;;;;;8.96;67.82;96340.78;5025237;28;20417;-63
2023/04/05 05:37:50;;;;;;;0.50;0.50;;;;;;;8.70;64.30;96267.09;5025924;28;20076;-62
2023/04/05 05:40:16;;;;;;;0.50;0.50;;;;;;;8.55;64.01;96239.72;5024679;28;20069;-62
2023/04/05 05:42:43;;;;;;;0.40;0.40;;;;;;;8.19;63.84;96175.00;5024369;28;20651;-62
2023/04/05 05:45:10;;;;;;;0.40;0.40;;;;;;;9.42;63.74;96353.09;5025256;28;20061;-59
2023/04/05 05:47:36;;;;;;;0.50;0.50;;;;;;;9.39;62.01;96337.28;5023687;28;20064;-59
2023/04/05 05:50:04;;;;;;;0.40;0.40;;;;;;;9.60;62.33;96345.78;5012631;28;20049;-61
2023/04/05 05:52:30;;;;;;;0.40;0.40;;;;;;;9.52;61.81;96346.09;5015055;28;20060;-61
2023/04/05 05:54:57;;;;;;;0.50;0.50;;;;;;;9.38;61.76;96324.66;5005822;28;20042;-59
2023/04/05 05:57:24;;;;;;;0.50;0.50;;;;;;;9.55;61.38;96339.84;5018430;28;20270;-60
2023/04/05 05:59:51;;;;;;;0.50;0.50;;;;;;;9.42;62.68;96347.56;5020338;28;20049;-62
2023/04/05 06:02:18;;;;;;;0.40;0.40;;;;;;;9.36;62.33;96340.81;5022624;28;20053;-62
2023/04/05 06:04:45;;;;;;;0.40;0.40;;;;;;;9.52;61.03;96349.66;5025914;28;20095;-61
2023/04/05 06:07:12;;;;;;;0.40;0.40;;;;;;;9.61;61.73;96349.34;5026126;28;20057;-62
2023/04/05 06:09:39;;;;;;;0.40;0.40;;;;;;;9.38;59.79;96263.84;5023322;28;20676;-60
2023/04/05 06:12:06;;;;;;;0.40;0.40;;;;;;;10.09;60.63;96354.53;5023907;28;20049;-57
2023/04/05 06:14:32;;;;;;;0.50;0.50;;;;;;;9.52;59.23;96258.44;5025310;28;20523;-62
2023/04/05 06:16:59;;;;;;;0.40;0.40;;;;;;;10.42;59.14;96342.50;5022517;28;20579;-58
2023/04/05 06:19:26;;;;;;;0.50;0.50;;;;;;;10.65;57.85;96360.44;5023627;28;20049;-58
2023/04/05 06:21:53;;;;;;;0.50;0.50;;;;;;;9.87;58.10;96286.38;5024413;28;20540;-63
2023/04/05 06:24:21;;;;;;;0.50;0.50;;;;;;;10.53;58.16;96369.09;5020430;28;20054;-59
2023/04/05 06:26:50;;;;;;;0.50;0.50;;;;;;;9.63;57.50;96237.19;5007829;28;20520;-59
2023/04/05 06:29:16;;;;;;;0.47;0.47;;;;;;;10.35;57.97;96373.69;5015386;28;20124;-58
2023/04/05 06:31:45;;;;;;;0.50;0.50;;;;;;;10.83;56.51;96370.84;5012349;28;20814;-57
2023/04/05 06:34:12;;;;;;;0.50;0.50;;;;;;;11.07;56.55;96370.13;5010940;28;20482;-59
2023/04/05 06:36:39;;;;;;;0.50;0.50;;;;;;;10.89;55.98;96353.44;5017284;28;20144;-63
2023/04/05 06:39:06;;;;;;;0.50;0.50;;;;;;;11.19;56.19;96378.13;5017898;28;20462;-62
2023/04/05 06:41:32;;;;;;;0.50;0.50;;;;;;;11.37;55.15;96374.22;5019953;28;20049;-62
2023/04/05 06:44:00;;;;;;;0.50;0.50;;;;;;;11.51;53.75;96381.78;5005747;28;20136;-63
2023/04/05 06:46:27;;;;;;;0.40;0.40;;;;;;;10.52;54.20;96384.13;5002719;28;20041;-60
2023/04/05 06:48:54;;;;;;;0.40;0.40;;;;;;;9.87;56.34;96369.34;5003260;28;20050;-58
2023/04/05 06:51:21;;;;;;;0.50;0.50;;;;;;;10.48;56.19;96377.75;5018123;28;20053;-57
2023/04/05 06:53:47;;;;;;;0.50;0.50;;;;;;;11.06;56.54;96380.44;5007942;28;20104;-59
2023/04/05 06:56:14;;;;;;;0.50;0.50;;;;;;;11.14;55.04;96386.81;5001994;28;20053;-58
2023/04/05 06:58:41;;;;;;;0.50;0.50;;;;;;;11.10;54.04;96302.84;5015385;28;20050;-58
2023/04/05 07:02:47;;;;;;;0.50;0.50;;;;;;;12.07;53.47;96393.00;5058999;28;20869;-59
2023/04/05 07:05:13;;;;;;;0.50;0.50;;;;;;;12.02;52.20;96360.09;5057097;28;20439;-60
2023/04/05 07:07:43;;;;;;;0.60;0.60;;;;;;;12.63;50.79;96400.53;5039541;28;20045;-60
2023/04/05 07:10:10;;;;;;;0.60;0.60;;;;;;;11.91;51.20;96389.81;5030501;28;20054;-59
2023/04/05 07:12:38;;;;;;;0.50;0.50;;;;;;;11.60;53.66;96398.84;5027379;28;20049;-60
2023/04/05 07:15:05;;;;;;;0.50;0.50;;;;;;;12.20;52.21;96389.44;5017519;28;20547;-60
2023/04/05 07:17:32;;;;;;;0.50;0.50;;;;;;;12.12;53.18;96387.06;5014793;28;20487;-60
2023/04/05 07:19:58;;;;;;;0.60;0.60;;;;;;;11.84;52.96;96325.97;5019658;28;20054;-60
2023/04/05 07:22:25;;;;;;;0.57;0.57;;;;;;;12.72;50.67;96390.59;5020681;28;20056;-63
2023/04/05 07:24:54;;;;;;;0.50;0.50;;;;;;;13.26;51.08;96401.16;5016571;28;20053;-61
2023/04/05 07:27:21;;;;;;;0.60;0.60;;;;;;;13.04;50.04;96346.84;5002773;28;20440;-62
2023/04/05 07:29:48;;;;;;;0.60;0.60;;;;;;;13.40;49.69;96395.56;5001421;28;20529;-59
2023/04/05 07:32:14;;;;;;;0.60;0.60;;;;;;;13.47;49.18;96353.78;5010630;28;20500;-60
2023/04/05 07:34:41;;;;;;;0.50;0.50;;;;;;;13.92;48.46;96398.47;5016615;28;20579;-61
2023/04/05 07:37:08;;;;;;;0.60;0.60;;;;;;;13.30;47.48;96365.81;5010401;28;20046;-58
2023/04/05 07:39:35;;;;;;;0.70;0.70;;;;;;;13.81;48.52;96403.31;5000530;28;20512;-58
2023/04/05 07:42:01;;;;;;;0.60;0.60;;;;;;;13.95;48.93;96403.22;5001061;28;20054;-63
2023/04/05 07:44:28;;;;;;;0.60;0.60;;;;;;;13.48;47.79;96285.81;5011276;28;20053;-63
2023/04/05 07:46:55;;;;;;;0.60;0.60;;;;;;;11.74;49.24;96287.94;5001114;28;20054;-60
2023/04/05 07:49:26;;;;;;;0.52;0.52;;;;;;;13.27;49.52;96405.56;5008413;28;20050;-59
2023/04/05 07:51:55;;;;;;;0.60;0.60;;;;;;;13.63;48.03;96406.97;5004186;28;20050;-61
2023/04/05 07:54:22;;;;;;;0.60;0.60;;;;;;;13.90;48.05;96417.56;5005634;28;20578;-59
2023/04/05 07:56:50;;;;;;;0.60;0.60;;;;;;;13.83;47.68;96373.06;5010311;28;20354;-61
2023/04/05 07:59:17;;;;;;;0.60;0.60;;;;;;;11.85;47.22;96134.16;5020298;28;20050;-61
2023/04/05 08:01:44;;;;;;;0.60;0.60;;;;;;;12.40;48.85;96284.28;5019996;28;20444;-62
2023/04/05 08:04:11;;;;;;;0.60;0.60;;;;;;;13.48;47.93;96379.63;5020227;28;20152;-62
2023/04/05 08:06:38;;;;;;;0.60;0.60;;;;;;;13.74;48.08;96408.94;5019132;28;20479;-62
2023/04/05 08:09:05;;;;;;;0.63;0.63;;;;;;;14.20;47.53;96414.97;5002914;28;20085;-62
2023/04/05 08:11:32;;;;;;;0.60;0.60;;;;;;;13.04;50.55;96399.66;5015061;28;20109;-61
2023/04/05 08:13:58;;;;;;;0.60;0.60;;;;;;;12.03;50.65;96342.22;4987111;28;20050;-62
2023/04/05 08:16:26;;;;;;;0.50;0.50;;;;;;;11.23;52.91;96429.63;4987544;28;20057;-61
2023/04/05 08:18:53;;;;;;;0.50;0.50;;;;;;;10.90;53.80;96420.72;4987113;28;20054;-60
2023/04/05 08:21:19;;;;;;;0.50;0.50;;;;;;;11.62;53.24;96418.66;5001772;28;20661;-61
2023/04/05 08:23:46;;;;;;;0.55;0.55;;;;;;;12.58;51.93;96410.06;4986944;28;20054;-61
2023/04/05 08:26:13;;;;;;;0.60;0.60;;;;;;;13.31;51.56;96428.56;4986962;28;20050;-62
2023/04/05 08:28:39;;;;;;;0.60;0.60;;;;;;;13.42;49.53;96423.75;4987085;28;20149;-63
2023/04/05 08:31:06;;;;;;;0.60;0.60;;;;;;;13.63;49.94;96420.91;4986807;28;20046;-62
2023/04/05 08:33:33;;;;;;;0.60;0.60;;;;;;;13.42;49.03;96336.75;4986698;28;20486;-63
2023/04/05 08:36:04;;;;;;;0.70;0.70;;;;;;;13.93;47.07;96411.97;4986595;28;20054;-60
2023/04/05 08:38:31;;;;;;;0.60;0.60;;;;;;;12.79;47.84;96243.28;4985410;28;20489;-61
2023/04/05 08:41:07;;;;;;;0.70;0.70;;;;;;;14.47;47.21;96424.34;4986796;28;20140;-63
2023/04/05 08:43:39;;;;;;;0.68;0.68;;;;;;;14.92;46.42;96417.59;4986787;28;20153;-62
2023/04/05 08:46:12;;;;;;;0.60;0.60;;;;;;;14.94;47.25;96398.41;4986745;28;20069;-60
2023/04/05 08:48:40;;;;;;;;;;;;;;;14.82;46.50;96429.63;4987121;28;20125;-62
2023/04/05 08:51:08;;;;;;;0.60;0.60;;;;;;;14.82;45.82;96429.63;4986775;28;19953;-62
2023/04/05 08:53:35;;;;;;;0.70;0.70;;;;;;;14.67;45.23;96383.53;5001460;28;20524;-61
2023/04/05 08:56:03;;;;;;;0.70;0.70;;;;;;;14.79;44.91;96380.25;4986496;28;20054;-62
2023/04/05 08:58:32;;;;;;;0.65;0.65;;;;;;;15.39;45.21;96441.00;4986467;28;20053;-62
2023/04/05 09:01:00;;;;;;;0.70;0.70;;;;;;;15.63;45.13;96435.16;4986055;28;20062;-60
2023/04/05 09:03:34;;;;;;;0.70;0.70;;;;;;;15.11;45.29;96430.94;4985040;28;20068;-61
2023/04/05 09:06:06;;;;;;;0.70;0.70;;;;;;;14.89;46.81;96424.00;4986498;28;20062;-62
2023/04/05 09:08:33;;;;;;;0.60;0.60;;;;;;;14.60;46.99;96378.06;4986460;28;20128;-64
2023/04/05 09:10:59;;;;;;;0.63;0.63;;;;;;;15.22;46.28;96442.78;4986498;28;20078;-64
2023/04/05 09:13:26;;;;;;;0.70;0.70;;;;;;;14.28;46.68;96321.81;4986542;28;20045;-63
2023/04/05 09:15:53;;;;;;;0.70;0.70;;;;;;;14.67;45.74;96330.59;4985970;28;20058;-62
2023/04/05 09:18:20;;;;;;;0.70;0.70;;;;;;;14.40;45.28;96265.59;4986308;28;20062;-61
2023/04/05 09:21:05;;;;;;;0.60;0.60;;;;;;;15.23;45.51;96449.91;4985625;28;20050;-62
2023/04/05 09:23:36;;;;;;;0.60;0.60;;;;;;;13.16;48.64;96446.53;4985555;28;20054;-64
2023/04/05 09:26:23;;;;;;;0.60;0.60;;;;;;;10.62;48.65;96006.75;4985188;28;20058;-62
2023/04/05 09:28:49;;;;;;;0.60;0.60;;;;;;;13.33;49.04;96456.78;4985761;28;20146;-60
2023/04/05 09:31:35;;;;;;;0.60;0.60;;;;;;;14.03;48.00;96425.03;4984054;28;20054;-61
2023/04/05 09:34:04;;;;;;;0.63;0.63;;;;;;;14.66;47.47;96437.72;4986003;28;20140;-60
2023/04/05 09:36:34;;;;;;;0.70;0.70;;;;;;;13.96;48.54;96388.09;4986045;28;20309;-61
2023/04/05 09:39:05;;;;;;;0.63;0.63;;;;;;;14.73;47.83;96443.25;4985651;28;20227;-59
2023/04/05 09:41:33;;;;;;;0.60;0.60;;;;;;;14.31;48.21;96454.72;4985589;28;20140;-61
2023/04/05 09:44:01;;;;;;;0.60;0.60;;;;;;;14.05;48.08;96368.94;4985912;28;20061;-66
2023/04/05 09:46:30;;;;;;;0.60;0.60;;;;;;;14.68;47.69;96436.13;4984153;28;20054;-63
2023/04/05 09:48:57;;;;;;;0.68;0.68;;;;;;;13.75;49.78;96428.00;4983450;28;20050;-64
2023/04/05 09:51:31;;;;;;;0.70;0.70;;;;;;;13.96;48.78;96441.00;4988957;28;20483;-63
2023/04/05 09:54:09;;;;;;;0.60;0.60;;;;;;;13.74;48.75;96375.53;5005493;28;20057;-62
2023/04/05 09:56:39;;;;;;;0.60;0.60;;;;;;;14.11;48.26;96395.16;4996526;28;20377;-63
2023/04/05 09:59:11;;;;;;;0.60;0.60;;;;;;;14.33;47.61;96402.16;5003849;28;20065;-65
2023/04/05 10:01:42;;;;;;;0.70;0.70;;;;;;;14.90;48.47;96433.94;5002971;28;20124;-66
2023/04/05 10:04:09;;;;;;;0.60;0.60;;;;;;;14.54;47.96;96429.88;4990985;28;20077;-63
2023/04/05 10:06:41;;;;;;;0.60;0.60;;;;;;;14.15;47.02;96434.91;4984802;28;20066;-64
2023/04/05 10:09:10;;;;;;;0.63;0.63;;;;;;;14.23;48.24;96414.94;4985776;28;20120;-67
2023/04/05 10:11:37;;;;;;;0.60;0.60;;;;;;;14.44;47.67;96427.97;4986007;28;20152;-61
2023/04/05 10:14:06;;;;;;;0.63;0.63;;;;;;;13.77;48.44;96433.16;4993498;28;20512;-62
2023/04/05 10:17:08;;;;;;;0.60;0.60;;;;;;;14.27;48.10;96442.81;5004607;28;20666;-63
2023/04/05 10:19:44;;;;;;;0.60;0.60;;;;;;;14.39;48.46;96433.97;4972825;28;20085;-65
2023/04/05 10:22:16;;;;;;;0.60;0.60;;;;;;;14.30;49.15;96437.22;4985487;28;20058;-70
2023/04/05 10:24:50;;;;;;;0.60;0.60;;;;;;;14.38;48.00;96415.66;4983338;28;20830;-63
2023/04/05 10:27:26;;;;;;;0.60;0.60;;;;;;;14.16;48.66;96391.94;4983671;28;20149;-68
2023/04/05 10:30:04;;;;;;;0.60;0.60;;;;;;;13.93;50.02;96444.59;4993368;28;20116;-62
2023/04/05 10:33:11;;;;;;;0.57;0.57;;;;;;;13.11;51.29;96441.38;4999106;28;20066;-63
2023/04/05 10:36:19;;;;;;;0.60;0.60;;;;;;;13.49;49.82;96440.44;5001325;28;20092;-69
2023/04/05 10:38:57;;;;;;;0.60;0.60;;;;;;;13.24;49.03;96409.16;4986892;28;20065;-68
2023/04/05 10:41:26;;;;;;;0.60;0.60;;;;;;;13.61;51.73;96439.97;4999263;28;20100;-61
2023/04/05 10:43:56;;;;;;;0.70;0.70;;;;;;;13.75;48.84;96404.94;4997864;28;20052;-62
2023/04/05 10:46:23;;;;;;;0.60;0.60;;;;;;;13.20;51.07;96440.94;4990090;28;20355;-60
2023/04/05 10:49:24;;;;;;;0.50;0.50;;;;;;;11.88;52.92;96448.88;4996371;28;20057;-67
2023/04/05 10:51:51;;;;;;;0.50;0.50;;;;;;;11.85;53.62;96371.97;4997383;28;20085;-67
2023/04/05 10:54:19;;;;;;;0.60;0.60;;;;;;;12.63;52.27;96442.22;4997577;28;20066;-62
2023/04/05 10:56:46;;;;;;;0.60;0.60;;;;;;;12.75;52.02;96442.59;4989156;28;20580;-66
2023/04/05 10:59:14;;;;;;;0.60;0.60;;;;;;;11.70;53.20;96426.66;4985404;28;20053;-61
2023/04/05 11:01:42;;;;;;;0.60;0.60;;;;;;;11.88;53.02;96457.22;5002171;28;20487;-61
2023/04/05 11:04:13;;;;;;;0.50;0.50;;;;;;;12.18;52.68;96449.34;4999742;28;20062;-64
2023/04/05 11:06:41;;;;;;;0.50;0.50;;;;;;;12.47;52.01;96453.69;4990853;28;20054;-63
2023/04/05 11:09:15;;;;;;;0.50;0.50;;;;;;;12.77;51.42;96451.31;4992542;28;20638;-63
2023/04/05 11:11:45;;;;;;;0.50;0.50;;;;;;;12.58;51.84;96417.59;4996679;28;20349;-64
2023/04/05 11:14:22;;;;;;;0.50;0.50;;;;;;;12.98;50.74;96459.63;4990800;28;20069;-63
2023/04/05 11:16:55;;;;;;;0.50;0.50;;;;;;;11.80;51.76;96411.22;5001992;28;20111;-60
2023/04/05 11:19:47;;;;;;;0.60;0.60;;;;;;;12.34;51.73;96455.31;5000169;28;20046;-67
2023/04/05 11:22:28;;;;;;;0.50;0.50;;;;;;;12.32;51.90;96452.13;4993178;28;20065;-62
2023/04/05 11:24:57;;;;;;;0.50;0.50;;;;;;;11.59;53.96;96453.53;4986540;28;20682;-63
2023/04/05 11:27:29;;;;;;;0.50;0.50;;;;;;;8.79;53.93;96103.88;4993994;28;20050;-65
2023/04/05 11:29:57;;;;;;;0.45;0.45;;;;;;;11.22;54.78;96432.78;4999358;28;20057;-63
2023/04/05 11:32:38;;;;;;;0.50;0.50;;;;;;;11.11;53.92;96443.03;5002015;28;20050;-65
2023/04/05 11:35:07;;;;;;;0.50;0.50;;;;;;;10.96;57.09;96455.19;4986628;28;20108;-66
2023/04/05 11:37:54;;;;;;;0.50;0.50;;;;;;;11.48;59.05;96462.97;4996127;28;20081;-67
2023/04/05 11:40:27;;;;;;;0.50;0.50;;;;;;;11.44;58.87;96428.91;5003078;28;20063;-68
2023/04/05 11:43:03;;;;;;;0.50;0.50;;;;;;;11.44;58.85;96434.47;5006680;28;20119;-64
2023/04/05 11:45:31;;;;;;;0.50;0.50;;;;;;;11.47;59.84;96461.41;5004371;28;20058;-60
2023/04/05 11:48:00;;;;;;;0.50;0.50;;;;;;;11.28;59.96;96475.59;5014049;28;20088;-67
2023/04/05 11:50:27;;;;;;;0.50;0.50;;;;;;;10.90;59.89;96437.34;5002465;28;20532;-66